Tisch Mills, Wisconsin
Current Conditions -  °F | °C
As of 7:56 AM on Tuesday 21 Oct 2014 (Local Time) from KMTW Reporting Station
Overcast Overcast  
Wind Chill: 39°   Ceiling: 2400
Heat Index: 44°   Visibility: 10mi
Dew Point: 40°   Wind: 10mph
Humidity: 85%   Direction: 350°N
Pressure: 30.16"   Gusts: NA
Location:  44.33°N, 87.62°W
Report Text: KMTW 211256Z AUTO 35009KT 10SM SCT018 OVC024 07/04 A3016 RMK AO2 SLP239 T00670044
Loading
Personal Weather Stations






























Interactive Weather Map
Tropical Storm Tracking
New forecast layout! Learn more

10-Day Weather Forecast

Advertisements
Track Severe Weather on mobile